sensor_id;sensor_type;location;lat;lon;timestamp;temperature;humidity
79024;DHT22;68424;44.714;37.756;2023-03-26T00:00:44;25.73;42.73
79024;DHT22;68424;44.714;37.756;2023-03-26T00:01:48;25.76;42.88
79024;DHT22;68424;44.714;37.756;2023-03-26T00:02:50;25.75;42.36
79024;DHT22;68424;44.714;37.756;2023-03-26T00:03:53;25.76;42.36
79024;DHT22;68424;44.714;37.756;2023-03-26T00:04:55;25.80;41.95
79024;DHT22;68424;44.714;37.756;2023-03-26T00:06:03;25.79;42.05
79024;DHT22;68424;44.714;37.756;2023-03-26T00:07:07;25.76;42.24
79024;DHT22;68424;44.714;37.756;2023-03-26T00:08:10;25.76;42.09
79024;DHT22;68424;44.714;37.756;2023-03-26T00:09:12;25.73;42.46
79024;DHT22;68424;44.714;37.756;2023-03-26T00:10:13;25.72;42.41
79024;DHT22;68424;44.714;37.756;2023-03-26T00:11:18;25.69;42.37
79024;DHT22;68424;44.714;37.756;2023-03-26T00:12:20;25.73;42.18
79024;DHT22;68424;44.714;37.756;2023-03-26T00:13:22;25.76;42.57
79024;DHT22;68424;44.714;37.756;2023-03-26T00:14:23;25.79;42.53
79024;DHT22;68424;44.714;37.756;2023-03-26T00:15:26;25.75;42.69
79024;DHT22;68424;44.714;37.756;2023-03-26T00:16:30;25.73;42.33
79024;DHT22;68424;44.714;37.756;2023-03-26T00:17:32;25.73;42.52
79024;DHT22;68424;44.714;37.756;2023-03-26T00:18:34;25.72;42.09
79024;DHT22;68424;44.714;37.756;2023-03-26T00:19:36;25.73;42.49
79024;DHT22;68424;44.714;37.756;2023-03-26T00:20:38;25.71;42.10
79024;DHT22;68424;44.714;37.756;2023-03-26T00:21:41;25.71;42.45
79024;DHT22;68424;44.714;37.756;2023-03-26T00:22:42;25.72;42.48
79024;DHT22;68424;44.714;37.756;2023-03-26T00:23:45;25.72;42.42
79024;DHT22;68424;44.714;37.756;2023-03-26T00:24:49;25.71;42.51
79024;DHT22;68424;44.714;37.756;2023-03-26T00:25:51;25.73;42.32
79024;DHT22;68424;44.714;37.756;2023-03-26T00:26:53;25.71;42.25
79024;DHT22;68424;44.714;37.756;2023-03-26T00:27:55;25.71;42.23
79024;DHT22;68424;44.714;37.756;2023-03-26T00:28:57;25.72;42.01
79024;DHT22;68424;44.714;37.756;2023-03-26T00:29:59;25.71;42.17
79024;DHT22;68424;44.714;37.756;2023-03-26T00:31:03;25.69;42.14
79024;DHT22;68424;44.714;37.756;2023-03-26T00:32:05;25.71;42.41
79024;DHT22;68424;44.714;37.756;2023-03-26T00:33:06;25.73;42.29
79024;DHT22;68424;44.714;37.756;2023-03-26T00:34:08;25.75;41.88
79024;DHT22;68424;44.714;37.756;2023-03-26T00:35:11;25.72;42.07
79024;DHT22;68424;44.714;37.756;2023-03-26T00:36:14;25.75;42.07
79024;DHT22;68424;44.714;37.756;2023-03-26T00:37:17;25.78;41.78
79024;DHT22;68424;44.714;37.756;2023-03-26T00:38:21;25.78;41.69
79024;DHT22;68424;44.714;37.756;2023-03-26T00:39:24;25.78;41.47
79024;DHT22;68424;44.714;37.756;2023-03-26T00:40:26;25.76;41.67
79024;DHT22;68424;44.714;37.756;2023-03-26T00:41:27;25.73;41.73
79024;DHT22;68424;44.714;37.756;2023-03-26T00:42:31;25.76;41.80
79024;DHT22;68424;44.714;37.756;2023-03-26T00:43:34;25.73;41.72
79024;DHT22;68424;44.714;37.756;2023-03-26T00:44:35;25.72;41.51
79024;DHT22;68424;44.714;37.756;2023-03-26T00:45:37;25.75;40.94
79024;DHT22;68424;44.714;37.756;2023-03-26T00:46:38;25.71;41.14
79024;DHT22;68424;44.714;37.756;2023-03-26T00:47:39;25.68;41.33
79024;DHT22;68424;44.714;37.756;2023-03-26T00:48:41;25.65;41.29
79024;DHT22;68424;44.714;37.756;2023-03-26T00:49:42;25.66;41.49
79024;DHT22;68424;44.714;37.756;2023-03-26T00:50:47;25.68;41.70
79024;DHT22;68424;44.714;37.756;2023-03-26T00:51:49;25.65;41.69
79024;DHT22;68424;44.714;37.756;2023-03-26T00:52:51;25.63;41.96
79024;DHT22;68424;44.714;37.756;2023-03-26T00:53:56;25.63;41.22
79024;DHT22;68424;44.714;37.756;2023-03-26T00:54:58;25.61;41.47
79024;DHT22;68424;44.714;37.756;2023-03-26T00:55:59;25.62;41.84
79024;DHT22;68424;44.714;37.756;2023-03-26T00:57:00;25.61;42.03
79024;DHT22;68424;44.714;37.756;2023-03-26T00:58:02;25.62;41.91
79024;DHT22;68424;44.714;37.756;2023-03-26T00:59:03;25.65;41.22
79024;DHT22;68424;44.714;37.756;2023-03-26T01:00:14;25.65;40.97
79024;DHT22;68424;44.714;37.756;2023-03-26T01:01:22;25.65;41.29
79024;DHT22;68424;44.714;37.756;2023-03-26T01:02:27;25.65;41.26
79024;DHT22;68424;44.714;37.756;2023-03-26T01:03:31;25.66;41.29
79024;DHT22;68424;44.714;37.756;2023-03-26T01:04:37;25.68;41.77
79024;DHT22;68424;44.714;37.756;2023-03-26T01:05:51;25.65;41.63
79024;DHT22;68424;44.714;37.756;2023-03-26T01:07:00;25.68;41.51
79024;DHT22;68424;44.714;37.756;2023-03-26T01:08:36;25.68;41.34
79024;DHT22;68424;44.714;37.756;2023-03-26T01:09:40;25.72;41.36
79024;DHT22;68424;44.714;37.756;2023-03-26T01:10:45;25.72;41.57
79024;DHT22;68424;44.714;37.756;2023-03-26T01:11:51;25.69;41.14
79024;DHT22;68424;44.714;37.756;2023-03-26T01:12:52;25.71;41.44
79024;DHT22;68424;44.714;37.756;2023-03-26T01:14:05;25.72;41.39
79024;DHT22;68424;44.714;37.756;2023-03-26T01:15:09;25.69;41.35
79024;DHT22;68424;44.714;37.756;2023-03-26T01:17:45;25.73;41.09
79024;DHT22;68424;44.714;37.756;2023-03-26T01:18:47;25.71;41.10
79024;DHT22;68424;44.714;37.756;2023-03-26T01:19:57;25.65;40.66
79024;DHT22;68424;44.714;37.756;2023-03-26T01:21:12;25.58;40.39
79024;DHT22;68424;44.714;37.756;2023-03-26T01:22:17;25.57;40.35
79024;DHT22;68424;44.714;37.756;2023-03-26T01:23:23;25.52;40.23
79024;DHT22;68424;44.714;37.756;2023-03-26T01:24:28;25.51;40.83
79024;DHT22;68424;44.714;37.756;2023-03-26T01:25:34;25.51;40.79
79024;DHT22;68424;44.714;37.756;2023-03-26T01:28:42;25.54;40.94
79024;DHT22;68424;44.714;37.756;2023-03-26T01:29:53;25.59;40.86
79024;DHT22;68424;44.714;37.756;2023-03-26T01:31:07;25.59;40.84
79024;DHT22;68424;44.714;37.756;2023-03-26T01:33:44;25.54;40.33
79024;DHT22;68424;44.714;37.756;2023-03-26T01:36:16;25.52;40.12
79024;DHT22;68424;44.714;37.756;2023-03-26T01:40:24;25.46;40.75
79024;DHT22;68424;44.714;37.756;2023-03-26T01:41:37;25.51;40.76
79024;DHT22;68424;44.714;37.756;2023-03-26T01:44:13;25.55;40.76
79024;DHT22;68424;44.714;37.756;2023-03-26T01:45:20;25.62;40.84
79024;DHT22;68424;44.714;37.756;2023-03-26T01:46:23;25.55;41.06
79024;DHT22;68424;44.714;37.756;2023-03-26T01:47:26;25.52;41.14
79024;DHT22;68424;44.714;37.756;2023-03-26T01:48:30;25.57;41.11
79024;DHT22;68424;44.714;37.756;2023-03-26T01:49:33;25.58;41.00
79024;DHT22;68424;44.714;37.756;2023-03-26T01:50:34;25.58;40.95
79024;DHT22;68424;44.714;37.756;2023-03-26T01:51:36;25.59;40.88
79024;DHT22;68424;44.714;37.756;2023-03-26T01:52:37;25.59;40.85
79024;DHT22;68424;44.714;37.756;2023-03-26T01:53:44;25.57;40.86
79024;DHT22;68424;44.714;37.756;2023-03-26T01:54:47;25.55;40.85
79024;DHT22;68424;44.714;37.756;2023-03-26T01:57:12;25.55;41.03
79024;DHT22;68424;44.714;37.756;2023-03-26T01:58:33;25.57;40.76
79024;DHT22;68424;44.714;37.756;2023-03-26T02:01:27;25.59;40.61
79024;DHT22;68424;44.714;37.756;2023-03-26T02:06:17;25.55;40.20
79024;DHT22;68424;44.714;37.756;2023-03-26T02:07:43;25.46;40.77
79024;DHT22;68424;44.714;37.756;2023-03-26T02:08:55;25.49;41.15
79024;DHT22;68424;44.714;37.756;2023-03-26T02:10:02;25.49;40.50
79024;DHT22;68424;44.714;37.756;2023-03-26T02:11:09;25.45;40.64
79024;DHT22;68424;44.714;37.756;2023-03-26T02:12:13;25.48;40.12
79024;DHT22;68424;44.714;37.756;2023-03-26T02:13:15;25.49;40.68
79024;DHT22;68424;44.714;37.756;2023-03-26T02:14:17;25.57;40.25
79024;DHT22;68424;44.714;37.756;2023-03-26T02:15:19;25.54;40.43
79024;DHT22;68424;44.714;37.756;2023-03-26T02:16:20;25.51;40.41
79024;DHT22;68424;44.714;37.756;2023-03-26T02:17:22;25.48;40.57
79024;DHT22;68424;44.714;37.756;2023-03-26T02:18:24;25.51;40.49
79024;DHT22;68424;44.714;37.756;2023-03-26T02:19:37;25.51;40.67
79024;DHT22;68424;44.714;37.756;2023-03-26T02:20:41;25.51;40.55
79024;DHT22;68424;44.714;37.756;2023-03-26T02:21:43;25.49;40.65
79024;DHT22;68424;44.714;37.756;2023-03-26T02:22:46;25.49;40.68
79024;DHT22;68424;44.714;37.756;2023-03-26T02:23:56;25.49;40.45
79024;DHT22;68424;44.714;37.756;2023-03-26T02:25:04;25.49;40.45
79024;DHT22;68424;44.714;37.756;2023-03-26T02:26:08;25.46;40.61
79024;DHT22;68424;44.714;37.756;2023-03-26T02:27:16;25.48;40.64
79024;DHT22;68424;44.714;37.756;2023-03-26T02:28:19;25.46;40.60
79024;DHT22;68424;44.714;37.756;2023-03-26T02:29:20;25.51;40.74
79024;DHT22;68424;44.714;37.756;2023-03-26T02:30:24;25.51;40.56
79024;DHT22;68424;44.714;37.756;2023-03-26T02:31:28;25.55;40.49
79024;DHT22;68424;44.714;37.756;2023-03-26T02:32:30;25.57;40.47
79024;DHT22;68424;44.714;37.756;2023-03-26T02:33:31;25.57;40.37
79024;DHT22;68424;44.714;37.756;2023-03-26T02:34:33;25.54;40.41
79024;DHT22;68424;44.714;37.756;2023-03-26T02:35:34;25.51;40.62
79024;DHT22;68424;44.714;37.756;2023-03-26T02:36:37;25.55;40.37
79024;DHT22;68424;44.714;37.756;2023-03-26T02:37:39;25.57;40.46
79024;DHT22;68424;44.714;37.756;2023-03-26T02:38:50;25.52;40.38
79024;DHT22;68424;44.714;37.756;2023-03-26T02:39:52;25.54;40.62
79024;DHT22;68424;44.714;37.756;2023-03-26T02:41:01;25.57;40.31
79024;DHT22;68424;44.714;37.756;2023-03-26T02:42:15;25.58;40.43
79024;DHT22;68424;44.714;37.756;2023-03-26T02:43:21;25.58;40.06
79024;DHT22;68424;44.714;37.756;2023-03-26T02:44:23;25.57;40.42
79024;DHT22;68424;44.714;37.756;2023-03-26T02:45:34;25.57;40.43
79024;DHT22;68424;44.714;37.756;2023-03-26T02:47:01;25.62;40.23
79024;DHT22;68424;44.714;37.756;2023-03-26T02:48:15;25.62;40.23
79024;DHT22;68424;44.714;37.756;2023-03-26T02:49:36;25.61;40.27
79024;DHT22;68424;44.714;37.756;2023-03-26T02:50:38;25.59;39.91
79024;DHT22;68424;44.714;37.756;2023-03-26T02:51:59;25.62;39.97
79024;DHT22;68424;44.714;37.756;2023-03-26T02:53:01;25.65;40.02
79024;DHT22;68424;44.714;37.756;2023-03-26T02:54:06;25.63;40.04
79024;DHT22;68424;44.714;37.756;2023-03-26T02:55:10;25.61;40.12
79024;DHT22;68424;44.714;37.756;2023-03-26T02:56:14;25.59;40.22
79024;DHT22;68424;44.714;37.756;2023-03-26T02:57:27;25.58;40.15
79024;DHT22;68424;44.714;37.756;2023-03-26T02:58:29;25.59;40.23
79024;DHT22;68424;44.714;37.756;2023-03-26T02:59:30;25.58;40.06
79024;DHT22;68424;44.714;37.756;2023-03-26T03:00:52;25.59;40.01
79024;DHT22;68424;44.714;37.756;2023-03-26T03:02:03;25.61;40.04
79024;DHT22;68424;44.714;37.756;2023-03-26T03:03:06;25.59;40.02
79024;DHT22;68424;44.714;37.756;2023-03-26T03:04:32;25.62;39.65
79024;DHT22;68424;44.714;37.756;2023-03-26T03:05:33;25.61;39.86
79024;DHT22;68424;44.714;37.756;2023-03-26T03:06:53;25.61;39.79
79024;DHT22;68424;44.714;37.756;2023-03-26T03:07:58;25.58;39.82
79024;DHT22;68424;44.714;37.756;2023-03-26T03:09:01;25.59;39.76
79024;DHT22;68424;44.714;37.756;2023-03-26T03:10:09;25.58;39.76
79024;DHT22;68424;44.714;37.756;2023-03-26T03:11:32;25.57;39.90
79024;DHT22;68424;44.714;37.756;2023-03-26T03:12:34;25.57;39.96
79024;DHT22;68424;44.714;37.756;2023-03-26T03:13:36;25.55;39.94
79024;DHT22;68424;44.714;37.756;2023-03-26T03:14:37;25.58;39.83
79024;DHT22;68424;44.714;37.756;2023-03-26T03:15:39;25.58;40.01
79024;DHT22;68424;44.714;37.756;2023-03-26T03:16:40;25.61;39.63
79024;DHT22;68424;44.714;37.756;2023-03-26T03:17:46;25.55;39.76
79024;DHT22;68424;44.714;37.756;2023-03-26T03:18:48;25.54;39.80
79024;DHT22;68424;44.714;37.756;2023-03-26T03:19:55;25.57;39.81
79024;DHT22;68424;44.714;37.756;2023-03-26T03:20:57;25.57;39.97
79024;DHT22;68424;44.714;37.756;2023-03-26T03:21:58;25.58;39.80
79024;DHT22;68424;44.714;37.756;2023-03-26T03:23:00;25.59;39.49
79024;DHT22;68424;44.714;37.756;2023-03-26T03:24:03;25.58;39.73
79024;DHT22;68424;44.714;37.756;2023-03-26T03:25:09;25.55;39.92
79024;DHT22;68424;44.714;37.756;2023-03-26T03:26:18;25.57;39.60
79024;DHT22;68424;44.714;37.756;2023-03-26T03:27:26;25.58;39.42
79024;DHT22;68424;44.714;37.756;2023-03-26T03:28:42;25.58;39.68
79024;DHT22;68424;44.714;37.756;2023-03-26T03:29:48;25.55;39.61
79024;DHT22;68424;44.714;37.756;2023-03-26T03:31:23;25.61;39.59
79024;DHT22;68424;44.714;37.756;2023-03-26T03:32:25;25.57;39.38
79024;DHT22;68424;44.714;37.756;2023-03-26T03:33:31;25.61;39.43
79024;DHT22;68424;44.714;37.756;2023-03-26T03:34:32;25.58;39.33
79024;DHT22;68424;44.714;37.756;2023-03-26T03:35:34;25.61;39.36
79024;DHT22;68424;44.714;37.756;2023-03-26T03:36:35;25.62;39.45
79024;DHT22;68424;44.714;37.756;2023-03-26T03:37:50;25.65;39.37
79024;DHT22;68424;44.714;37.756;2023-03-26T03:38:52;25.62;39.55
79024;DHT22;68424;44.714;37.756;2023-03-26T03:39:55;25.63;39.37
79024;DHT22;68424;44.714;37.756;2023-03-26T03:40:59;25.65;39.52
79024;DHT22;68424;44.714;37.756;2023-03-26T03:42:03;25.66;39.43
79024;DHT22;68424;44.714;37.756;2023-03-26T03:43:04;25.68;39.61
79024;DHT22;68424;44.714;37.756;2023-03-26T03:44:14;25.71;39.53
79024;DHT22;68424;44.714;37.756;2023-03-26T03:45:17;25.75;39.40
79024;DHT22;68424;44.714;37.756;2023-03-26T03:46:37;25.73;39.37
79024;DHT22;68424;44.714;37.756;2023-03-26T03:47:38;25.69;39.46
79024;DHT22;68424;44.714;37.756;2023-03-26T03:48:40;25.69;39.30
79024;DHT22;68424;44.714;37.756;2023-03-26T03:49:48;25.68;39.32
79024;DHT22;68424;44.714;37.756;2023-03-26T03:50:50;25.68;39.08
79024;DHT22;68424;44.714;37.756;2023-03-26T03:52:06;25.68;39.33
79024;DHT22;68424;44.714;37.756;2023-03-26T03:53:13;25.69;39.32
79024;DHT22;68424;44.714;37.756;2023-03-26T03:54:17;25.65;39.22
79024;DHT22;68424;44.714;37.756;2023-03-26T03:55:21;25.65;39.45
79024;DHT22;68424;44.714;37.756;2023-03-26T03:56:27;25.65;39.55
79024;DHT22;68424;44.714;37.756;2023-03-26T03:58:04;25.69;39.28
79024;DHT22;68424;44.714;37.756;2023-03-26T03:59:06;25.69;39.24
79024;DHT22;68424;44.714;37.756;2023-03-26T04:00:11;25.69;39.31
79024;DHT22;68424;44.714;37.756;2023-03-26T04:01:24;25.68;39.47
79024;DHT22;68424;44.714;37.756;2023-03-26T04:02:34;25.65;39.34
79024;DHT22;68424;44.714;37.756;2023-03-26T04:03:39;25.58;39.49
79024;DHT22;68424;44.714;37.756;2023-03-26T04:04:45;25.59;39.38
79024;DHT22;68424;44.714;37.756;2023-03-26T04:05:53;25.59;39.92
79024;DHT22;68424;44.714;37.756;2023-03-26T04:06:57;25.61;39.73
79024;DHT22;68424;44.714;37.756;2023-03-26T04:08:03;25.57;40.27
79024;DHT22;68424;44.714;37.756;2023-03-26T04:09:15;25.51;40.22
79024;DHT22;68424;44.714;37.756;2023-03-26T04:10:18;25.54;40.20
79024;DHT22;68424;44.714;37.756;2023-03-26T04:11:42;25.58;39.87
79024;DHT22;68424;44.714;37.756;2023-03-26T04:12:53;25.52;40.40
79024;DHT22;68424;44.714;37.756;2023-03-26T04:14:08;25.52;40.43
79024;DHT22;68424;44.714;37.756;2023-03-26T04:15:32;25.61;40.13
79024;DHT22;68424;44.714;37.756;2023-03-26T04:16:37;25.62;40.02
79024;DHT22;68424;44.714;37.756;2023-03-26T04:17:38;25.61;40.09
79024;DHT22;68424;44.714;37.756;2023-03-26T04:18:44;25.55;40.31
79024;DHT22;68424;44.714;37.756;2023-03-26T04:19:49;25.61;40.10
79024;DHT22;68424;44.714;37.756;2023-03-26T04:20:53;25.62;40.10
79024;DHT22;68424;44.714;37.756;2023-03-26T04:22:01;25.58;40.25
79024;DHT22;68424;44.714;37.756;2023-03-26T04:23:07;25.54;40.10
79024;DHT22;68424;44.714;37.756;2023-03-26T04:24:15;25.51;40.35
79024;DHT22;68424;44.714;37.756;2023-03-26T04:25:35;25.51;40.22
79024;DHT22;68424;44.714;37.756;2023-03-26T04:26:45;25.51;39.95
79024;DHT22;68424;44.714;37.756;2023-03-26T04:27:50;25.51;40.10
79024;DHT22;68424;44.714;37.756;2023-03-26T04:29:11;25.49;40.00
79024;DHT22;68424;44.714;37.756;2023-03-26T04:30:19;25.42;40.32
79024;DHT22;68424;44.714;37.756;2023-03-26T04:31:26;25.39;40.06
79024;DHT22;68424;44.714;37.756;2023-03-26T04:32:33;25.41;40.15
79024;DHT22;68424;44.714;37.756;2023-03-26T04:33:35;25.41;39.99
79024;DHT22;68424;44.714;37.756;2023-03-26T04:34:38;25.48;40.11
79024;DHT22;68424;44.714;37.756;2023-03-26T04:35:46;25.49;39.73
79024;DHT22;68424;44.714;37.756;2023-03-26T04:36:51;25.49;39.95
79024;DHT22;68424;44.714;37.756;2023-03-26T04:38:02;25.44;40.27
79024;DHT22;68424;44.714;37.756;2023-03-26T04:39:11;25.49;40.07
79024;DHT22;68424;44.714;37.756;2023-03-26T04:40:48;25.66;39.85
79024;DHT22;68424;44.714;37.756;2023-03-26T04:42:01;25.68;39.76
79024;DHT22;68424;44.714;37.756;2023-03-26T04:43:15;25.73;39.64
79024;DHT22;68424;44.714;37.756;2023-03-26T04:44:36;25.76;39.39
79024;DHT22;68424;44.714;37.756;2023-03-26T04:45:44;25.79;39.46
79024;DHT22;68424;44.714;37.756;2023-03-26T04:46:49;25.80;39.36
79024;DHT22;68424;44.714;37.756;2023-03-26T04:47:58;25.80;39.42
79024;DHT22;68424;44.714;37.756;2023-03-26T04:49:00;25.86;39.37
79024;DHT22;68424;44.714;37.756;2023-03-26T04:50:03;25.78;39.84
79024;DHT22;68424;44.714;37.756;2023-03-26T04:51:05;25.66;39.91
79024;DHT22;68424;44.714;37.756;2023-03-26T04:52:10;25.63;39.86
79024;DHT22;68424;44.714;37.756;2023-03-26T04:53:33;25.55;40.05
79024;DHT22;68424;44.714;37.756;2023-03-26T04:55:06;25.54;40.45
79024;DHT22;68424;44.714;37.756;2023-03-26T04:57:53;25.69;40.44
79024;DHT22;68424;44.714;37.756;2023-03-26T04:59:27;25.73;39.89
79024;DHT22;68424;44.714;37.756;2023-03-26T05:00:36;25.79;39.92
79024;DHT22;68424;44.714;37.756;2023-03-26T05:01:37;25.82;39.92
79024;DHT22;68424;44.714;37.756;2023-03-26T05:02:42;25.82;40.09
79024;DHT22;68424;44.714;37.756;2023-03-26T05:03:44;25.83;40.23
79024;DHT22;68424;44.714;37.756;2023-03-26T05:04:47;25.88;39.99
79024;DHT22;68424;44.714;37.756;2023-03-26T05:05:51;25.97;39.61
79024;DHT22;68424;44.714;37.756;2023-03-26T05:06:52;25.96;39.73
79024;DHT22;68424;44.714;37.756;2023-03-26T05:08:05;25.99;39.71
79024;DHT22;68424;44.714;37.756;2023-03-26T05:09:07;26.00;39.64
79024;DHT22;68424;44.714;37.756;2023-03-26T05:10:36;26.03;39.68
79024;DHT22;68424;44.714;37.756;2023-03-26T05:11:43;26.03;39.69
79024;DHT22;68424;44.714;37.756;2023-03-26T05:12:45;26.04;39.54
79024;DHT22;68424;44.714;37.756;2023-03-26T05:13:51;26.03;39.51
79024;DHT22;68424;44.714;37.756;2023-03-26T05:14:53;26.04;39.86
79024;DHT22;68424;44.714;37.756;2023-03-26T05:16:20;26.06;39.81
79024;DHT22;68424;44.714;37.756;2023-03-26T05:17:30;26.10;39.55
79024;DHT22;68424;44.714;37.756;2023-03-26T05:18:34;26.08;39.81
79024;DHT22;68424;44.714;37.756;2023-03-26T05:19:37;26.12;39.75
79024;DHT22;68424;44.714;37.756;2023-03-26T05:20:39;26.12;39.76
79024;DHT22;68424;44.714;37.756;2023-03-26T05:21:43;26.12;39.52
79024;DHT22;68424;44.714;37.756;2023-03-26T05:22:46;26.23;39.37
79024;DHT22;68424;44.714;37.756;2023-03-26T05:23:55;26.17;39.39
79024;DHT22;68424;44.714;37.756;2023-03-26T05:24:57;26.17;39.79
79024;DHT22;68424;44.714;37.756;2023-03-26T05:25:59;26.17;39.73
79024;DHT22;68424;44.714;37.756;2023-03-26T05:27:01;26.14;39.74
79024;DHT22;68424;44.714;37.756;2023-03-26T05:28:02;26.16;39.46
79024;DHT22;68424;44.714;37.756;2023-03-26T05:29:17;26.14;39.34
79024;DHT22;68424;44.714;37.756;2023-03-26T05:30:24;26.08;39.39
79024;DHT22;68424;44.714;37.756;2023-03-26T05:31:30;26.12;39.55
79024;DHT22;68424;44.714;37.756;2023-03-26T05:32:33;26.13;39.43
79024;DHT22;68424;44.714;37.756;2023-03-26T05:33:35;26.14;39.41
79024;DHT22;68424;44.714;37.756;2023-03-26T05:34:42;26.13;39.55
79024;DHT22;68424;44.714;37.756;2023-03-26T05:35:44;26.14;39.44
79024;DHT22;68424;44.714;37.756;2023-03-26T05:36:46;26.12;39.36
79024;DHT22;68424;44.714;37.756;2023-03-26T05:38:03;26.13;39.31
79024;DHT22;68424;44.714;37.756;2023-03-26T05:39:05;26.04;39.46
79024;DHT22;68424;44.714;37.756;2023-03-26T05:40:29;26.04;39.54
79024;DHT22;68424;44.714;37.756;2023-03-26T05:41:34;26.07;39.47
79024;DHT22;68424;44.714;37.756;2023-03-26T05:42:35;26.07;39.50
79024;DHT22;68424;44.714;37.756;2023-03-26T05:44:09;26.12;39.32
79024;DHT22;68424;44.714;37.756;2023-03-26T05:45:12;26.13;39.37
79024;DHT22;68424;44.714;37.756;2023-03-26T05:46:15;26.10;39.41
79024;DHT22;68424;44.714;37.756;2023-03-26T05:47:17;26.13;39.28
79024;DHT22;68424;44.714;37.756;2023-03-26T05:48:19;26.10;39.38
79024;DHT22;68424;44.714;37.756;2023-03-26T05:49:21;26.13;39.29
79024;DHT22;68424;44.714;37.756;2023-03-26T05:50:23;26.17;39.27
79024;DHT22;68424;44.714;37.756;2023-03-26T05:51:27;26.16;39.36
79024;DHT22;68424;44.714;37.756;2023-03-26T05:52:44;26.17;39.28
79024;DHT22;68424;44.714;37.756;2023-03-26T05:54:04;26.21;39.25
79024;DHT22;68424;44.714;37.756;2023-03-26T05:55:31;26.20;39.38
79024;DHT22;68424;44.714;37.756;2023-03-26T05:56:51;26.23;39.25
79024;DHT22;68424;44.714;37.756;2023-03-26T05:58:12;26.21;39.24
79024;DHT22;68424;44.714;37.756;2023-03-26T05:59:32;26.20;39.30
79024;DHT22;68424;44.714;37.756;2023-03-26T06:01:11;26.17;39.36
79024;DHT22;68424;44.714;37.756;2023-03-26T06:02:35;26.18;39.32
79024;DHT22;68424;44.714;37.756;2023-03-26T06:04:16;26.20;39.24
79024;DHT22;68424;44.714;37.756;2023-03-26T06:05:44;26.20;39.27
79024;DHT22;68424;44.714;37.756;2023-03-26T06:07:10;26.18;39.37
79024;DHT22;68424;44.714;37.756;2023-03-26T06:08:13;26.14;39.39
79024;DHT22;68424;44.714;37.756;2023-03-26T06:09:22;26.14;39.49
79024;DHT22;68424;44.714;37.756;2023-03-26T06:10:24;26.12;39.55
79024;DHT22;68424;44.714;37.756;2023-03-26T06:11:26;26.13;39.55
79024;DHT22;68424;44.714;37.756;2023-03-26T06:12:27;26.12;39.64
79024;DHT22;68424;44.714;37.756;2023-03-26T06:13:29;26.13;39.58
79024;DHT22;68424;44.714;37.756;2023-03-26T06:14:31;26.10;39.56
79024;DHT22;68424;44.714;37.756;2023-03-26T06:15:48;26.10;39.65
79024;DHT22;68424;44.714;37.756;2023-03-26T06:17:04;26.14;39.51
79024;DHT22;68424;44.714;37.756;2023-03-26T06:18:24;26.17;39.55
79024;DHT22;68424;44.714;37.756;2023-03-26T06:19:46;26.13;39.54
79024;DHT22;68424;44.714;37.756;2023-03-26T06:20:57;26.14;39.46
79024;DHT22;68424;44.714;37.756;2023-03-26T06:22:12;26.16;39.43
79024;DHT22;68424;44.714;37.756;2023-03-26T06:23:33;26.18;39.40
79024;DHT22;68424;44.714;37.756;2023-03-26T06:24:37;26.16;39.45
79024;DHT22;68424;44.714;37.756;2023-03-26T06:25:59;26.12;39.44
79024;DHT22;68424;44.714;37.756;2023-03-26T06:27:19;26.10;39.48
79024;DHT22;68424;44.714;37.756;2023-03-26T06:28:44;26.10;39.53
79024;DHT22;68424;44.714;37.756;2023-03-26T06:30:07;26.13;39.46
79024;DHT22;68424;44.714;37.756;2023-03-26T06:31:29;26.13;39.56
79024;DHT22;68424;44.714;37.756;2023-03-26T06:32:48;26.10;39.55
79024;DHT22;68424;44.714;37.756;2023-03-26T06:33:57;26.06;39.58
79024;DHT22;68424;44.714;37.756;2023-03-26T06:34:59;26.10;39.57
79024;DHT22;68424;44.714;37.756;2023-03-26T06:36:00;26.12;39.57
79024;DHT22;68424;44.714;37.756;2023-03-26T06:37:02;26.12;39.51
79024;DHT22;68424;44.714;37.756;2023-03-26T06:38:04;26.16;39.41
79024;DHT22;68424;44.714;37.756;2023-03-26T06:39:07;26.13;39.44
79024;DHT22;68424;44.714;37.756;2023-03-26T06:40:11;26.17;39.35
79024;DHT22;68424;44.714;37.756;2023-03-26T06:41:45;26.20;39.30
79024;DHT22;68424;44.714;37.756;2023-03-26T06:42:57;26.21;39.24
79024;DHT22;68424;44.714;37.756;2023-03-26T06:44:19;26.18;39.31
79024;DHT22;68424;44.714;37.756;2023-03-26T06:45:41;26.20;39.28
79024;DHT22;68424;44.714;37.756;2023-03-26T06:47:01;26.18;39.50
79024;DHT22;68424;44.714;37.756;2023-03-26T06:48:29;26.16;39.39
79024;DHT22;68424;44.714;37.756;2023-03-26T06:49:50;26.17;39.46
79024;DHT22;68424;44.714;37.756;2023-03-26T06:51:05;26.14;39.39
79024;DHT22;68424;44.714;37.756;2023-03-26T06:52:25;26.12;39.51
79024;DHT22;68424;44.714;37.756;2023-03-26T06:53:38;26.14;39.43
79024;DHT22;68424;44.714;37.756;2023-03-26T06:55:05;26.20;39.39
79024;DHT22;68424;44.714;37.756;2023-03-26T06:56:32;26.21;39.28
79024;DHT22;68424;44.714;37.756;2023-03-26T06:57:51;26.20;39.37
79024;DHT22;68424;44.714;37.756;2023-03-26T06:59:12;26.23;39.41
79024;DHT22;68424;44.714;37.756;2023-03-26T07:00:32;26.20;39.46
79024;DHT22;68424;44.714;37.756;2023-03-26T07:01:52;26.23;39.39
79024;DHT22;68424;44.714;37.756;2023-03-26T07:03:23;26.20;39.39
79024;DHT22;68424;44.714;37.756;2023-03-26T07:04:56;26.21;39.33
79024;DHT22;68424;44.714;37.756;2023-03-26T07:06:17;26.18;39.35
79024;DHT22;68424;44.714;37.756;2023-03-26T07:07:24;26.17;39.37
79024;DHT22;68424;44.714;37.756;2023-03-26T07:09:04;26.21;39.36
79024;DHT22;68424;44.714;37.756;2023-03-26T07:10:35;26.18;39.30
79024;DHT22;68424;44.714;37.756;2023-03-26T07:11:36;26.18;39.36
79024;DHT22;68424;44.714;37.756;2023-03-26T07:12:56;26.18;39.40
79024;DHT22;68424;44.714;37.756;2023-03-26T07:14:16;26.17;39.53
79024;DHT22;68424;44.714;37.756;2023-03-26T07:15:41;26.17;39.57
79024;DHT22;68424;44.714;37.756;2023-03-26T07:17:03;26.24;39.60
79024;DHT22;68424;44.714;37.756;2023-03-26T07:18:09;26.23;39.69
79024;DHT22;68424;44.714;37.756;2023-03-26T07:19:12;26.20;39.71
79024;DHT22;68424;44.714;37.756;2023-03-26T07:20:16;26.18;39.72
79024;DHT22;68424;44.714;37.756;2023-03-26T07:21:19;26.18;39.65
79024;DHT22;68424;44.714;37.756;2023-03-26T07:22:23;26.17;39.57
79024;DHT22;68424;44.714;37.756;2023-03-26T07:23:43;26.21;39.60
79024;DHT22;68424;44.714;37.756;2023-03-26T07:25:01;26.23;39.53
79024;DHT22;68424;44.714;37.756;2023-03-26T07:30:55;26.24;39.64